Time;durP1;ratioP1;P1;durP2;ratioP2;P2;SDS_P1;SDS_P2;PMS_P1;PMS_P2;Temp;Humidity;BMP_temperature;BMP_pressure;BME280_temperature;BME280_humidity;BME280_pressure;Samples;Min_cycle;Max_cycle;Signal;HPM_P1;HPM_P2
2023/07/09 00:00:51;;;;;;;4.20;3.50;;;24.90;94.10;;;;;;4995225;28;20201;-72
2023/07/09 00:03:18;;;;;;;5.63;3.30;;;24.90;94.10;;;;;;5018123;22;20549;-69
2023/07/09 00:05:47;;;;;;;4.77;3.93;;;24.80;94.30;;;;;;4994362;28;20400;-70
2023/07/09 00:08:41;;;;;;;4.40;3.27;;;24.80;94.60;;;;;;4994533;28;20408;-69
2023/07/09 00:11:07;;;;;;;5.47;3.80;;;24.80;94.90;;;;;;4993294;28;20447;-69
2023/07/09 00:13:32;;;;;;;7.50;3.77;;;24.80;95.10;;;;;;5009999;28;20447;-69
2023/07/09 00:16:01;;;;;;;4.83;3.73;;;24.60;95.50;;;;;;5014233;28;20175;-69
2023/07/09 00:18:26;;;;;;;6.60;4.30;;;24.50;95.80;;;;;;5014089;28;20206;-68
2023/07/09 00:20:52;;;;;;;5.50;3.70;;;24.40;96.40;;;;;;5013732;28;20396;-68
2023/07/09 00:23:20;;;;;;;4.20;3.33;;;24.30;96.80;;;;;;5013632;28;20700;-69
2023/07/09 00:25:46;;;;;;;4.50;4.10;;;24.30;96.70;;;;;;5013622;28;20635;-69
2023/07/09 00:28:15;;;;;;;4.17;3.73;;;24.30;96.90;;;;;;5013068;28;20422;-69
2023/07/09 00:30:41;;;;;;;4.50;3.73;;;24.30;97.30;;;;;;5013816;28;20417;-69
2023/07/09 00:33:18;;;;;;;8.33;4.63;;;24.20;97.60;;;;;;5013489;28;20419;-69
2023/07/09 00:35:46;;;;;;;4.03;3.63;;;24.20;97.90;;;;;;5014058;28;20148;-69
2023/07/09 00:38:29;;;;;;;4.63;3.70;;;24.20;97.80;;;;;;5013773;28;20406;-69
2023/07/09 00:41:01;;;;;;;5.00;3.50;;;24.20;97.90;;;;;;5013695;28;20391;-70
2023/07/09 00:43:34;;;;;;;4.27;3.60;;;24.20;98.30;;;;;;5012855;28;20446;-70
2023/07/09 00:46:18;;;;;;;4.20;3.80;;;24.10;98.50;;;;;;5013393;28;20387;-71
2023/07/09 00:48:51;;;;;;;4.20;3.23;;;24.20;98.60;;;;;;5013061;28;20447;-70
2023/07/09 00:51:20;;;;;;;4.40;3.67;;;24.20;98.60;;;;;;5013087;28;20440;-70
2023/07/09 00:53:49;;;;;;;6.30;3.53;;;24.30;98.70;;;;;;5013255;28;20419;-70
2023/07/09 00:56:21;;;;;;;4.50;3.63;;;24.40;98.50;;;;;;5013213;28;20434;-70
2023/07/09 00:58:48;;;;;;;4.70;3.70;;;24.50;98.40;;;;;;5012643;28;20786;-69
2023/07/09 01:01:17;;;;;;;4.90;4.40;;;24.40;98.30;;;;;;5013219;28;20403;-70
2023/07/09 01:03:48;;;;;;;5.23;4.00;;;24.30;98.70;;;;;;5012993;28;20439;-68
2023/07/09 01:06:17;;;;;;;4.50;3.60;;;24.20;99.00;;;;;;5013458;28;20409;-69
2023/07/09 01:08:43;;;;;;;5.47;4.13;;;24.20;99.30;;;;;;5013051;28;20446;-70
2023/07/09 01:11:20;;;;;;;4.17;3.77;;;24.20;99.50;;;;;;5013024;28;20399;-70
2023/07/09 01:13:51;;;;;;;4.40;3.63;;;24.00;99.90;;;;;;4992029;28;20466;-70
2023/07/09 01:16:18;;;;;;;4.67;4.00;;;24.00;99.90;;;;;;4993507;28;20423;-70
2023/07/09 01:18:43;;;;;;;5.20;4.30;;;24.00;99.90;;;;;;4993344;28;20474;-69
2023/07/09 01:21:16;;;;;;;5.23;4.33;;;23.90;99.90;;;;;;4993613;28;20403;-69
2023/07/09 01:23:44;;;;;;;4.33;3.70;;;23.90;99.90;;;;;;4993357;28;20188;-69
2023/07/09 01:26:12;;;;;;;4.03;3.60;;;23.90;99.90;;;;;;4993421;28;20408;-69
2023/07/09 01:28:41;;;;;;;4.40;3.90;;;23.60;99.90;;;;;;4993166;28;20502;-69
2023/07/09 01:31:07;;;;;;;5.07;3.70;;;23.70;99.90;;;;;;4993510;28;20403;-69
2023/07/09 01:33:33;;;;;;;6.03;3.90;;;23.70;99.90;;;;;;4999187;28;20485;-69
2023/07/09 01:36:00;;;;;;;7.67;5.10;;;23.70;99.90;;;;;;5013133;28;20447;-69
2023/07/09 01:38:31;;;;;;;4.87;4.00;;;23.70;99.90;;;;;;5012898;28;20658;-69
2023/07/09 01:40:57;;;;;;;4.40;3.63;;;23.70;99.90;;;;;;5013127;28;20379;-69
2023/07/09 01:43:24;;;;;;;4.63;3.60;;;23.70;99.90;;;;;;5012216;28;20431;-69
2023/07/09 01:45:51;;;;;;;4.73;3.60;;;23.60;99.90;;;;;;5012633;28;20238;-69
2023/07/09 01:48:20;;;;;;;4.77;4.30;;;23.50;99.90;;;;;;5012579;28;20399;-69
2023/07/09 01:50:49;;;;;;;4.30;3.90;;;23.40;99.90;;;;;;5012366;28;20406;-69
2023/07/09 01:53:16;;;;;;;5.70;3.70;;;23.30;99.90;;;;;;5012756;28;20917;-69
2023/07/09 01:55:43;;;;;;;4.10;3.80;;;23.30;99.90;;;;;;5012690;28;20465;-69
2023/07/09 01:58:08;;;;;;;4.40;3.47;;;23.30;99.90;;;;;;5012665;28;20511;-69
2023/07/09 02:00:34;;;;;;;3.53;3.13;;;23.30;99.90;;;;;;5014834;28;20486;-69
2023/07/09 02:03:02;;;;;;;7.70;4.00;;;23.40;99.90;;;;;;5016286;28;20222;-69
2023/07/09 02:05:30;;;;;;;5.20;4.23;;;23.60;99.90;;;;;;5016575;28;20484;-69
2023/07/09 02:07:55;;;;;;;7.10;4.00;;;23.70;99.90;;;;;;5016787;28;20975;-69
2023/07/09 02:10:21;;;;;;;4.73;4.33;;;23.70;99.90;;;;;;5016126;28;20492;-69
2023/07/09 02:12:48;;;;;;;4.87;3.90;;;23.70;99.90;;;;;;5014896;28;20200;-69
2023/07/09 02:15:14;;;;;;;6.63;4.23;;;23.80;99.90;;;;;;5016139;28;20169;-69
2023/07/09 02:17:40;;;;;;;5.10;3.57;;;23.70;99.90;;;;;;5016023;28;20486;-69
2023/07/09 02:20:08;;;;;;;8.33;4.47;;;23.70;99.90;;;;;;5016523;28;20448;-69
2023/07/09 02:22:35;;;;;;;4.10;3.70;;;23.70;99.90;;;;;;5016091;28;20438;-69
2023/07/09 02:25:00;;;;;;;4.47;4.00;;;23.60;99.90;;;;;;5014564;28;20919;-69
2023/07/09 02:27:27;;;;;;;4.73;4.10;;;23.50;99.90;;;;;;5015665;28;20418;-69
2023/07/09 02:29:54;;;;;;;6.37;4.30;;;23.40;99.90;;;;;;5016578;28;20283;-69
2023/07/09 02:32:22;;;;;;;5.10;4.40;;;23.40;99.90;;;;;;5015738;28;20430;-69
2023/07/09 02:34:52;;;;;;;5.83;4.03;;;23.30;99.90;;;;;;5015887;28;20546;-69
2023/07/09 02:37:25;;;;;;;3.80;3.03;;;23.20;99.90;;;;;;5016164;28;20407;-69
2023/07/09 02:39:52;;;;;;;5.30;3.93;;;23.20;99.90;;;;;;5016040;28;20395;-69
2023/07/09 02:42:20;;;;;;;3.70;3.40;;;23.10;99.90;;;;;;5015290;28;20438;-69
2023/07/09 02:44:46;;;;;;;4.47;3.37;;;23.10;99.90;;;;;;5015588;28;20819;-70
2023/07/09 02:47:12;;;;;;;4.67;3.77;;;23.10;99.90;;;;;;5015793;28;20442;-69
2023/07/09 02:49:38;;;;;;;5.20;4.70;;;23.20;99.90;;;;;;5015429;28;20442;-69
2023/07/09 02:52:05;;;;;;;4.53;3.87;;;23.10;99.90;;;;;;5015441;28;20467;-69
2023/07/09 02:54:31;;;;;;;5.00;3.97;;;23.20;99.90;;;;;;5015717;28;20412;-70
2023/07/09 02:56:56;;;;;;;5.47;4.20;;;23.30;99.90;;;;;;5015120;28;20404;-69
2023/07/09 02:59:22;;;;;;;4.50;3.60;;;23.30;99.90;;;;;;5014415;28;20191;-70
2023/07/09 03:01:49;;;;;;;3.80;3.40;;;23.30;99.90;;;;;;5015102;28;20275;-70
2023/07/09 03:04:14;;;;;;;4.83;4.00;;;23.30;99.90;;;;;;5015726;28;20407;-70
2023/07/09 03:06:40;;;;;;;7.57;4.83;;;23.30;99.90;;;;;;5015888;28;20461;-70
2023/07/09 03:09:06;;;;;;;4.50;3.67;;;23.20;99.90;;;;;;5015294;28;20206;-70
2023/07/09 03:11:34;;;;;;;5.30;4.13;;;23.10;99.90;;;;;;5014410;28;20172;-69
2023/07/09 03:14:01;;;;;;;4.00;3.60;;;23.10;99.90;;;;;;5014846;28;20455;-70
2023/07/09 03:16:32;;;;;;;4.90;4.00;;;23.10;99.90;;;;;;5015026;28;20403;-70
2023/07/09 03:18:57;;;;;;;4.10;3.70;;;23.00;99.90;;;;;;5015124;28;20485;-69
2023/07/09 03:21:25;;;;;;;5.50;3.93;;;22.90;99.90;;;;;;5014925;28;20823;-70
2023/07/09 03:23:51;;;;;;;4.30;3.70;;;22.80;99.90;;;;;;5015467;28;20236;-70
2023/07/09 03:26:17;;;;;;;5.40;4.20;;;22.80;99.90;;;;;;5014769;28;20411;-71
2023/07/09 03:28:43;;;;;;;4.43;4.03;;;22.80;99.90;;;;;;5012910;28;20458;-71
2023/07/09 03:31:08;;;;;;;5.00;4.37;;;22.70;99.90;;;;;;5014995;28;20418;-71
2023/07/09 03:33:34;;;;;;;5.47;4.97;;;22.70;99.90;;;;;;5014590;28;20590;-71
2023/07/09 03:35:59;;;;;;;6.33;4.70;;;22.70;99.90;;;;;;5015246;28;20164;-72
2023/07/09 03:38:25;;;;;;;5.20;4.50;;;22.80;99.90;;;;;;5014811;28;20255;-71
2023/07/09 03:40:55;;;;;;;4.50;4.10;;;22.90;99.90;;;;;;5013233;28;20194;-72
2023/07/09 03:43:22;;;;;;;4.77;4.10;;;23.00;99.90;;;;;;5013628;28;20219;-70
2023/07/09 03:45:48;;;;;;;5.50;4.23;;;22.90;99.90;;;;;;5014706;28;20498;-71
2023/07/09 03:48:15;;;;;;;6.87;4.17;;;23.00;99.90;;;;;;5014667;28;20435;-71
2023/07/09 03:50:43;;;;;;;4.33;3.93;;;23.00;99.90;;;;;;5014834;28;20932;-71
2023/07/09 03:53:08;;;;;;;6.47;4.30;;;22.90;99.90;;;;;;5014179;28;20426;-71
2023/07/09 03:55:34;;;;;;;5.80;4.50;;;22.90;99.90;;;;;;5014220;28;20774;-71
2023/07/09 03:57:59;;;;;;;5.27;4.77;;;22.80;99.90;;;;;;5013824;28;20195;-71
2023/07/09 04:00:25;;;;;;;5.03;4.00;;;22.80;99.90;;;;;;5014173;28;20179;-71
2023/07/09 04:02:51;;;;;;;6.20;4.00;;;22.80;99.90;;;;;;5013948;28;20204;-70
2023/07/09 04:05:17;;;;;;;5.53;4.47;;;22.80;99.90;;;;;;5014286;28;20333;-70
2023/07/09 04:07:43;;;;;;;6.30;4.23;;;22.80;99.90;;;;;;5014015;28;20505;-71
2023/07/09 04:10:09;;;;;;;3.97;3.60;;;22.80;99.90;;;;;;5013919;28;20195;-71
2023/07/09 04:12:36;;;;;;;6.77;3.97;;;22.80;99.90;;;;;;5013655;28;20455;-71
2023/07/09 04:15:05;;;;;;;5.13;3.90;;;22.80;99.90;;;;;;5014208;28;20406;-71
2023/07/09 04:17:32;;;;;;;4.53;4.00;;;22.70;99.90;;;;;;5014114;28;20866;-71
2023/07/09 04:19:57;;;;;;;5.50;4.80;;;22.70;99.90;;;;;;5013835;28;20493;-71
2023/07/09 04:22:23;;;;;;;5.53;4.57;;;22.80;99.90;;;;;;5012915;28;20475;-71
2023/07/09 04:24:49;;;;;;;5.43;4.10;;;22.80;99.90;;;;;;5013766;28;20180;-70
2023/07/09 04:27:16;;;;;;;6.70;4.70;;;22.70;99.90;;;;;;5013433;28;20160;-71
2023/07/09 04:29:41;;;;;;;4.30;3.90;;;22.80;99.90;;;;;;5013391;28;20443;-71
2023/07/09 04:32:11;;;;;;;5.20;4.67;;;22.80;99.90;;;;;;5013442;28;20472;-71
2023/07/09 04:34:38;;;;;;;4.53;4.13;;;22.80;99.90;;;;;;5013578;28;20164;-71
2023/07/09 04:37:08;;;;;;;6.20;5.27;;;22.80;99.90;;;;;;5013761;28;20403;-71
2023/07/09 04:39:34;;;;;;;5.33;4.83;;;22.80;99.90;;;;;;5013992;28;20402;-70
2023/07/09 04:42:00;;;;;;;8.10;4.60;;;22.90;99.90;;;;;;5013101;28;20481;-70
2023/07/09 04:44:26;;;;;;;4.60;4.13;;;23.00;99.90;;;;;;5013208;28;20724;-71
2023/07/09 04:46:51;;;;;;;6.43;5.03;;;23.10;99.90;;;;;;5013684;28;20168;-71
2023/07/09 04:49:17;;;;;;;5.23;4.40;;;23.10;99.90;;;;;;5013930;28;20200;-71
2023/07/09 04:51:42;;;;;;;7.60;4.00;;;23.10;99.90;;;;;;5014145;28;20168;-71
2023/07/09 04:54:08;;;;;;;6.37;4.57;;;23.20;99.90;;;;;;5014532;28;20211;-71
2023/07/09 04:56:34;;;;;;;6.00;4.47;;;23.30;99.90;;;;;;5013426;28;20175;-71
2023/07/09 04:58:59;;;;;;;6.07;4.00;;;23.30;99.90;;;;;;5013828;28;20227;-70
2023/07/09 05:01:25;;;;;;;5.30;4.57;;;23.40;99.90;;;;;;5013739;28;20192;-71
2023/07/09 05:03:50;;;;;;;6.23;4.60;;;23.40;99.90;;;;;;5013357;28;20200;-71
2023/07/09 05:06:16;;;;;;;5.53;4.47;;;23.40;99.90;;;;;;5013544;28;20601;-71
2023/07/09 05:08:42;;;;;;;4.80;3.90;;;23.50;99.90;;;;;;5011807;28;20199;-71
2023/07/09 05:11:08;;;;;;;4.80;4.30;;;23.50;99.90;;;;;;5013728;28;20627;-71
2023/07/09 05:13:34;;;;;;;6.00;4.80;;;23.70;99.90;;;;;;5012680;28;20435;-71
2023/07/09 05:16:00;;;;;;;5.43;4.23;;;23.70;99.90;;;;;;5013551;28;20250;-71
2023/07/09 05:18:25;;;;;;;5.13;4.63;;;23.70;99.90;;;;;;5013533;28;20219;-71
2023/07/09 05:20:51;;;;;;;6.10;5.30;;;23.90;99.90;;;;;;5013589;28;20195;-71
2023/07/09 05:23:16;;;;;;;4.60;4.07;;;24.00;99.90;;;;;;5013967;28;20199;-70
2023/07/09 05:25:42;;;;;;;5.43;4.90;;;24.20;99.90;;;;;;5013841;28;20168;-71
2023/07/09 05:28:07;;;;;;;5.57;4.27;;;24.20;99.90;;;;;;5013138;28;20247;-71
2023/07/09 05:30:33;;;;;;;5.53;4.60;;;24.30;99.90;;;;;;5013545;28;20192;-71
2023/07/09 05:32:59;;;;;;;5.37;4.87;;;24.40;99.90;;;;;;5013498;28;20237;-71
2023/07/09 05:35:26;;;;;;;4.97;4.47;;;24.50;99.90;;;;;;5017008;28;20187;-71
2023/07/09 05:37:53;;;;;;;10.50;5.20;;;24.60;99.90;;;;;;5017678;28;20183;-71
2023/07/09 05:40:18;;;;;;;6.90;5.13;;;24.80;99.90;;;;;;5016668;28;20410;-71
2023/07/09 05:42:44;;;;;;;5.10;4.60;;;24.80;99.90;;;;;;5016313;28;20952;-71
2023/07/09 05:45:10;;;;;;;5.97;4.97;;;24.90;99.90;;;;;;5016905;28;20168;-71
2023/07/09 05:47:36;;;;;;;6.40;4.80;;;25.00;99.90;;;;;;5017044;28;20171;-72
2023/07/09 05:50:03;;;;;;;6.67;4.83;;;25.10;99.90;;;;;;5016985;28;20438;-71
2023/07/09 05:52:29;;;;;;;4.70;4.30;;;25.20;99.90;;;;;;5017220;28;20205;-70
2023/07/09 05:54:55;;;;;;;6.37;5.10;;;25.30;99.90;;;;;;5017054;28;20805;-71
2023/07/09 05:57:21;;;;;;;7.50;5.33;;;25.30;99.90;;;;;;5015440;28;20215;-70
2023/07/09 05:59:47;;;;;;;7.43;5.47;;;25.50;99.90;;;;;;5015492;28;20414;-70
2023/07/09 06:02:17;;;;;;;8.97;4.87;;;25.50;99.90;;;;;;5039615;22;20203;-69
2023/07/09 06:04:43;;;;;;;5.37;4.70;;;25.80;99.90;;;;;;4999193;28;20584;-69
2023/07/09 06:07:09;;;;;;;6.37;5.20;;;26.00;99.90;;;;;;5016956;28;20445;-69
2023/07/09 06:09:35;;;;;;;6.23;4.70;;;26.10;99.90;;;;;;5016478;28;20952;-70
2023/07/09 06:12:03;;;;;;;5.60;4.47;;;26.30;99.90;;;;;;5015549;28;20172;-69
2023/07/09 06:14:29;;;;;;;5.83;4.53;;;26.30;99.90;;;;;;5016456;28;20406;-70
2023/07/09 06:16:54;;;;;;;6.00;4.57;;;26.40;99.90;;;;;;5016453;28;20398;-69
2023/07/09 06:19:20;;;;;;;5.87;5.00;;;26.50;99.90;;;;;;5016546;28;20818;-70
2023/07/09 06:21:45;;;;;;;9.10;4.73;;;26.50;99.90;;;;;;5016828;28;20630;-70
2023/07/09 06:24:11;;;;;;;5.17;4.67;;;26.70;99.90;;;;;;5016361;28;20203;-70
2023/07/09 06:26:37;;;;;;;5.40;4.90;;;26.80;99.90;;;;;;5016214;28;20242;-69
2023/07/09 06:29:02;;;;;;;5.87;5.00;;;26.90;99.90;;;;;;5015547;28;20226;-70
2023/07/09 06:31:29;;;;;;;6.67;5.20;;;27.00;99.90;;;;;;5016106;28;20168;-70
2023/07/09 06:33:54;;;;;;;5.23;4.73;;;27.10;99.90;;;;;;5016091;28;20192;-69
2023/07/09 06:36:20;;;;;;;5.60;4.67;;;27.20;99.70;;;;;;5016008;28;20411;-69
2023/07/09 06:38:46;;;;;;;5.33;4.83;;;27.10;99.20;;;;;;5016094;28;20289;-69
2023/07/09 06:41:15;;;;;;;5.13;4.63;;;27.20;99.10;;;;;;4998518;28;20172;-69
2023/07/09 06:43:41;;;;;;;6.13;5.10;;;27.40;99.00;;;;;;5015757;28;20537;-69
2023/07/09 06:46:13;;;;;;;6.10;5.03;;;27.20;98.60;;;;;;5015769;28;20821;-69
2023/07/09 06:48:39;;;;;;;6.10;5.50;;;27.20;98.90;;;;;;5015665;28;20219;-70
2023/07/09 06:51:04;;;;;;;6.30;5.47;;;27.30;98.80;;;;;;5015659;28;20411;-70
2023/07/09 06:53:30;;;;;;;7.10;6.40;;;27.50;98.40;;;;;;5015777;28;20187;-69
2023/07/09 06:55:58;;;;;;;12.60;11.30;;;27.70;98.10;;;;;;5015756;28;20173;-69
2023/07/09 06:58:25;;;;;;;6.47;5.40;;;27.90;97.70;;;;;;5015423;28;20163;-70
2023/07/09 07:00:51;;;;;;;6.40;5.87;;;28.10;97.60;;;;;;5016277;28;20893;-70
2023/07/09 07:03:17;;;;;;;6.70;5.93;;;28.20;96.90;;;;;;5015667;28;20533;-69
2023/07/09 07:05:48;;;;;;;5.87;5.03;;;28.30;96.80;;;;;;5017907;28;20164;-70
2023/07/09 07:08:16;;;;;;;5.90;5.20;;;28.10;96.00;;;;;;5015632;28;20904;-70
2023/07/09 07:10:42;;;;;;;7.73;5.90;;;28.00;96.70;;;;;;5015642;28;20793;-70
2023/07/09 07:13:08;;;;;;;6.20;5.50;;;28.20;96.10;;;;;;5014740;28;20549;-70
2023/07/09 07:15:36;;;;;;;5.60;5.10;;;28.20;96.20;;;;;;5015706;28;20538;-70
2023/07/09 07:18:03;;;;;;;9.40;5.67;;;28.40;95.70;;;;;;5015550;28;20259;-70
2023/07/09 07:20:30;;;;;;;6.90;5.20;;;28.40;95.90;;;;;;5015578;28;20415;-70
2023/07/09 07:22:56;;;;;;;7.27;4.97;;;28.30;95.30;;;;;;5015290;28;20431;-70
2023/07/09 07:25:22;;;;;;;6.67;5.60;;;28.10;95.40;;;;;;5015166;28;20415;-69
2023/07/09 07:27:48;;;;;;;8.63;6.53;;;27.90;95.80;;;;;;5014811;28;20953;-69
2023/07/09 07:30:14;;;;;;;5.30;4.80;;;28.20;95.70;;;;;;5014841;28;20534;-69
2023/07/09 07:32:45;;;;;;;4.83;4.30;;;28.30;94.60;;;;;;5015461;28;20184;-70
2023/07/09 07:35:13;;;;;;;6.23;4.70;;;28.20;94.50;;;;;;5015004;28;20401;-69
2023/07/09 07:37:41;;;;;;;5.37;4.87;;;28.40;94.40;;;;;;5015138;28;20414;-69
2023/07/09 07:40:08;;;;;;;5.97;4.90;;;28.70;94.00;;;;;;5014844;28;20442;-69
2023/07/09 07:42:34;;;;;;;6.53;4.60;;;28.90;94.10;;;;;;5014277;28;20500;-69
2023/07/09 07:45:00;;;;;;;5.13;4.70;;;29.10;93.50;;;;;;5014908;28;20399;-69
2023/07/09 07:47:27;;;;;;;6.73;5.60;;;29.40;93.30;;;;;;5014748;28;20164;-70
2023/07/09 07:49:53;;;;;;;5.60;5.10;;;29.50;93.10;;;;;;5015032;28;20275;-70
2023/07/09 07:52:18;;;;;;;5.97;5.00;;;29.60;93.00;;;;;;5014503;28;20427;-69
2023/07/09 07:54:44;;;;;;;5.47;4.60;;;29.70;92.70;;;;;;5014667;28;20410;-69
2023/07/09 07:57:10;;;;;;;5.50;4.77;;;29.80;92.80;;;;;;5014539;28;20195;-69
2023/07/09 07:59:37;;;;;;;5.57;5.00;;;29.80;91.60;;;;;;5014056;28;20427;-69
2023/07/09 08:02:04;;;;;;;6.43;5.30;;;29.20;92.30;;;;;;5014391;28;20183;-69
2023/07/09 08:04:30;;;;;;;5.40;4.90;;;28.90;92.50;;;;;;5014280;28;20407;-68
2023/07/09 08:06:56;;;;;;;5.13;4.63;;;29.00;92.30;;;;;;5013685;28;20415;-68
2023/07/09 08:09:21;;;;;;;9.30;4.97;;;29.10;92.50;;;;;;5014541;28;20200;-67
2023/07/09 08:11:49;;;;;;;4.97;4.40;;;29.10;91.60;;;;;;5013857;28;20222;-69
2023/07/09 08:14:15;;;;;;;6.03;5.43;;;29.20;91.30;;;;;;5013909;28;20184;-69
2023/07/09 08:16:40;;;;;;;6.00;5.20;;;29.20;92.00;;;;;;5014129;28;20403;-68
2023/07/09 08:19:06;;;;;;;5.70;5.10;;;29.40;92.10;;;;;;5014376;28;20476;-69
2023/07/09 08:21:32;;;;;;;6.20;4.87;;;29.30;91.80;;;;;;5014658;28;20164;-68
2023/07/09 08:23:57;;;;;;;5.27;4.50;;;29.30;91.30;;;;;;5014079;28;20658;-70
2023/07/09 08:26:24;;;;;;;6.30;5.03;;;29.20;91.60;;;;;;5013971;28;20172;-71
2023/07/09 08:28:50;;;;;;;7.70;5.93;;;29.30;91.80;;;;;;5013376;28;20191;-72
2023/07/09 08:31:16;;;;;;;6.10;4.97;;;29.60;91.40;;;;;;5014138;28;20490;-70
2023/07/09 08:33:42;;;;;;;7.57;5.33;;;29.80;91.00;;;;;;5014627;28;20462;-70
2023/07/09 08:36:08;;;;;;;6.03;5.43;;;29.90;90.40;;;;;;5013876;28;20458;-69
2023/07/09 08:38:34;;;;;;;5.50;5.00;;;29.80;90.20;;;;;;5014042;28;20164;-69
2023/07/09 08:41:35;;;;;;;5.50;4.90;;;29.80;90.70;;;;;;5014869;28;20423;-69
2023/07/09 08:44:24;;;;;;;5.60;5.10;;;29.90;90.60;;;;;;5012542;28;20633;-69
2023/07/09 08:47:18;;;;;;;6.60;5.50;;;30.30;90.30;;;;;;5014132;28;20450;-68
2023/07/09 08:49:54;;;;;;;5.80;5.30;;;30.20;89.90;;;;;;5013559;28;20533;-70
2023/07/09 08:52:31;;;;;;;5.50;5.00;;;30.10;91.40;;;;;;5009884;28;20565;-70
2023/07/09 08:55:00;;;;;;;5.33;4.80;;;30.30;91.80;;;;;;5011877;28;20387;-72
2023/07/09 08:57:34;;;;;;;5.83;5.33;;;30.50;91.10;;;;;;5012724;28;20403;-73
2023/07/09 09:00:14;;;;;;;6.27;5.50;;;30.50;91.20;;;;;;5012757;28;21019;-72
2023/07/09 09:03:05;;;;;;;7.63;4.63;;;30.70;90.90;;;;;;5000143;28;21054;-72
2023/07/09 09:05:34;;;;;;;5.40;4.90;;;30.90;90.80;;;;;;5013680;28;20400;-72
2023/07/09 09:08:15;;;;;;;5.93;5.30;;;31.10;89.70;;;;;;5013324;28;20403;-72
2023/07/09 09:10:48;;;;;;;5.93;5.30;;;31.10;88.80;;;;;;5013654;28;20449;-72
2023/07/09 09:13:17;;;;;;;7.80;5.00;;;31.00;88.00;;;;;;5012079;28;20530;-72
2023/07/09 09:15:45;;;;;;;7.40;4.80;;;31.10;87.10;;;;;;5013566;28;20414;-72
2023/07/09 09:18:19;;;;;;;4.77;4.37;;;31.10;87.30;;;;;;5013221;28;20636;-73
2023/07/09 09:20:52;;;;;;;8.00;4.80;;;30.90;87.20;;;;;;5013318;28;20816;-72
2023/07/09 09:23:18;;;;;;;5.33;4.80;;;30.80;87.30;;;;;;5012272;28;20525;-71
2023/07/09 09:25:52;;;;;;;5.83;4.50;;;30.80;86.80;;;;;;5013298;28;20442;-71
2023/07/09 09:28:18;;;;;;;5.47;4.90;;;30.90;86.50;;;;;;5012881;28;20909;-72
2023/07/09 09:30:43;;;;;;;5.10;4.60;;;31.10;84.60;;;;;;5013110;28;20446;-72
2023/07/09 09:33:11;;;;;;;6.20;4.33;;;31.30;83.70;;;;;;5007377;28;20674;-72
2023/07/09 09:35:41;;;;;;;6.63;5.23;;;31.50;83.50;;;;;;5013267;28;20639;-72
2023/07/09 09:38:16;;;;;;;5.63;5.13;;;31.70;82.80;;;;;;5012592;28;20515;-72
2023/07/09 09:40:42;;;;;;;5.27;4.77;;;31.70;82.00;;;;;;4995878;28;20498;-72
2023/07/09 09:43:19;;;;;;;6.40;4.77;;;31.70;81.10;;;;;;5012708;28;20485;-72
2023/07/09 09:45:48;;;;;;;5.37;4.80;;;31.80;81.60;;;;;;5013425;28;20168;-72
2023/07/09 09:48:28;;;;;;;5.97;5.43;;;31.80;81.40;;;;;;5013160;28;20830;-72
2023/07/09 09:50:55;;;;;;;4.53;4.13;;;32.00;81.10;;;;;;5013388;28;20489;-72
2023/07/09 09:53:23;;;;;;;5.13;4.63;;;31.90;79.00;;;;;;5012934;28;20494;-72
2023/07/09 09:55:51;;;;;;;5.67;4.23;;;32.00;78.50;;;;;;5013101;28;20395;-72
2023/07/09 09:58:18;;;;;;;4.43;4.00;;;32.10;77.80;;;;;;5012670;28;20928;-72
2023/07/09 10:00:51;;;;;;;5.00;4.10;;;32.40;77.60;;;;;;5013051;28;20836;-72
2023/07/09 10:03:18;;;;;;;3.60;3.30;;;32.70;72.60;;;;;;5012362;28;20480;-72
2023/07/09 10:05:57;;;;;;;4.70;4.20;;;32.90;68.70;;;;;;5012942;28;20403;-72
2023/07/09 10:08:39;;;;;;;40.70;37.30;;;33.00;68.30;;;;;;5013033;28;20474;-72
2023/07/09 10:11:19;;;;;;;4.13;3.70;;;33.30;66.00;;;;;;5013350;28;20773;-71
2023/07/09 10:13:45;;;;;;;8.07;4.13;;;33.10;59.50;;;;;;5010958;28;20438;-72
2023/07/09 10:16:17;;;;;;;5.83;5.23;;;33.10;59.80;;;;;;5012767;28;20399;-72
2023/07/09 10:18:46;;;;;;;13.03;11.60;;;33.30;61.30;;;;;;4995395;28;20814;-73
2023/07/09 10:21:24;;;;;;;14.57;13.13;;;33.40;62.10;;;;;;5014122;28;20505;-72
2023/07/09 10:23:59;;;;;;;18.87;17.00;;;33.50;59.80;;;;;;5016470;28;20410;-73
2023/07/09 10:26:34;;;;;;;5.97;4.07;;;33.80;59.40;;;;;;5016860;28;20394;-72
2023/07/09 10:29:34;;;;;;;4.17;3.77;;;33.90;56.70;;;;;;5015689;28;20438;-71
2023/07/09 10:32:21;;;;;;;6.10;5.50;;;33.70;58.50;;;;;;5016503;28;20376;-73
2023/07/09 10:35:07;;;;;;;5.13;3.70;;;33.80;56.80;;;;;;5016204;28;20418;-72
2023/07/09 10:37:42;;;;;;;3.93;3.60;;;33.80;56.40;;;;;;5016309;28;20376;-71
2023/07/09 10:40:12;;;;;;;3.60;3.17;;;33.80;56.40;;;;;;5015724;28;20375;-73
2023/07/09 10:42:45;;;;;;;4.20;3.60;;;33.90;56.80;;;;;;5014371;28;20455;-72
2023/07/09 10:45:21;;;;;;;4.67;3.60;;;33.60;56.70;;;;;;5015970;28;20394;-72
2023/07/09 10:47:58;;;;;;;3.83;3.40;;;33.90;54.70;;;;;;5015919;28;20398;-72
2023/07/09 10:50:31;;;;;;;4.33;3.63;;;33.90;53.80;;;;;;5016036;28;20453;-72
2023/07/09 10:53:04;;;;;;;6.23;4.33;;;33.80;53.80;;;;;;5015721;28;20407;-72
2023/07/09 10:55:59;;;;;;;6.00;3.30;;;34.00;51.30;;;;;;5015274;28;20442;-72
2023/07/09 10:58:43;;;;;;;5.20;3.80;;;33.90;51.10;;;;;;5015456;28;20418;-73
2023/07/09 11:01:13;;;;;;;5.50;4.00;;;34.00;51.00;;;;;;5015712;28;20402;-73
2023/07/09 11:03:54;;;;;;;8.97;4.30;;;34.20;51.40;;;;;;5015491;28;20466;-73
2023/07/09 11:06:25;;;;;;;7.33;3.90;;;34.30;51.20;;;;;;5017407;28;20755;-73
2023/07/09 11:08:53;;;;;;;5.50;3.60;;;34.30;51.80;;;;;;4996412;28;20872;-72
2023/07/09 11:11:50;;;;;;;3.70;3.20;;;34.50;50.80;;;;;;4996726;28;20400;-72
2023/07/09 11:14:30;;;;;;;4.00;3.60;;;34.70;51.00;;;;;;5011577;28;20952;-71
2023/07/09 11:16:57;;;;;;;4.33;3.40;;;34.70;49.90;;;;;;5015221;28;20407;-70
2023/07/09 11:19:24;;;;;;;6.13;3.97;;;34.90;50.30;;;;;;5015100;28;20426;-72
2023/07/09 11:22:17;;;;;;;4.90;4.00;;;34.90;48.00;;;;;;5015087;28;20407;-72
2023/07/09 11:24:51;;;;;;;5.87;4.63;;;34.90;47.10;;;;;;5015159;28;20453;-71
2023/07/09 11:27:25;;;;;;;4.50;4.03;;;34.80;45.70;;;;;;5015326;28;20399;-70
2023/07/09 11:30:28;;;;;;;5.67;3.80;;;34.80;45.60;;;;;;5014418;28;20512;-71
2023/07/09 11:33:04;;;;;;;5.63;4.53;;;35.00;45.70;;;;;;5012605;28;20538;-72
2023/07/09 11:35:50;;;;;;;5.37;3.60;;;36.10;46.50;;;;;;5014627;28;20411;-72
2023/07/09 11:38:19;;;;;;;4.10;3.70;;;37.50;43.30;;;;;;5015309;28;20430;-72
2023/07/09 11:40:50;;;;;;;4.80;3.50;;;38.60;42.20;;;;;;5015050;28;20395;-71
2023/07/09 11:43:31;;;;;;;6.30;4.07;;;39.30;41.60;;;;;;5014158;28;20437;-70
2023/07/09 11:46:03;;;;;;;5.07;3.93;;;40.10;40.90;;;;;;5014763;28;20448;-71
2023/07/09 11:48:34;;;;;;;4.20;3.57;;;40.80;39.10;;;;;;5014292;28;20783;-71
2023/07/09 11:51:08;;;;;;;6.47;3.90;;;42.30;37.20;;;;;;5014019;28;20399;-72
2023/07/09 11:53:36;;;;;;;4.30;3.90;;;43.10;35.70;;;;;;5013708;28;20525;-70
2023/07/09 11:56:02;;;;;;;4.50;4.07;;;41.60;36.10;;;;;;5014504;28;20417;-70
2023/07/09 11:58:28;;;;;;;6.17;3.40;;;40.60;36.90;;;;;;5014303;28;20515;-70
2023/07/09 12:00:58;;;;;;;5.57;4.87;;;41.30;37.60;;;;;;5014397;28;20422;-71
2023/07/09 12:03:36;;;;;;;9.53;4.50;;;41.60;34.00;;;;;;5014845;28;20211;-71
2023/07/09 12:06:06;;;;;;;4.30;3.90;;;42.80;31.90;;;;;;4984229;28;21007;-73
2023/07/09 12:08:40;;;;;;;7.23;3.93;;;42.80;32.30;;;;;;5011487;28;20247;-71
2023/07/09 12:11:17;;;;;;;6.73;4.60;;;42.90;32.40;;;;;;5004529;28;20165;-71
2023/07/09 12:13:43;;;;;;;4.33;3.83;;;43.10;31.20;;;;;;5011037;28;20290;-71
2023/07/09 12:16:24;;;;;;;5.07;3.80;;;42.10;32.20;;;;;;5012983;28;20262;-72
2023/07/09 12:18:50;;;;;;;5.50;4.60;;;41.80;32.70;;;;;;5014141;28;20237;-71
2023/07/09 12:21:16;;;;;;;4.83;3.70;;;41.60;31.20;;;;;;5014397;28;20787;-70
2023/07/09 12:23:42;;;;;;;5.90;4.10;;;41.80;30.90;;;;;;5001055;28;20196;-72
2023/07/09 12:26:16;;;;;;;4.77;3.77;;;43.00;30.10;;;;;;5013848;28;20171;-73
2023/07/09 12:28:41;;;;;;;7.30;5.13;;;42.50;30.30;;;;;;5013633;28;20534;-72
2023/07/09 12:31:14;;;;;;;7.03;4.07;;;42.00;31.70;;;;;;5011706;28;20430;-73
2023/07/09 12:33:52;;;;;;;6.20;4.40;;;42.50;31.50;;;;;;4999866;28;20267;-72
2023/07/09 12:36:18;;;;;;;5.73;4.30;;;43.20;30.40;;;;;;5012043;28;20174;-72
2023/07/09 12:38:46;;;;;;;7.22;4.53;;;44.80;29.70;;;;;;5013584;28;20585;-73
2023/07/09 12:41:27;;;;;;;7.07;4.23;;;44.20;29.40;;;;;;5014214;28;20164;-72
2023/07/09 12:43:54;;;;;;;6.27;4.30;;;43.70;30.00;;;;;;5012496;28;20192;-72
2023/07/09 12:46:21;;;;;;;4.38;3.92;;;44.10;29.20;;;;;;5013896;28;20182;-71
2023/07/09 12:48:48;;;;;;;4.32;3.90;;;44.30;28.90;;;;;;5013539;28;20171;-69
2023/07/09 12:51:19;;;;;;;7.05;3.97;;;43.90;29.00;;;;;;5013774;28;20250;-71
2023/07/09 12:53:45;;;;;;;7.30;4.47;;;42.10;30.70;;;;;;5013881;28;20630;-72
2023/07/09 12:56:16;;;;;;;5.60;3.60;;;42.80;29.60;;;;;;5013692;28;20171;-71